sensor_id;sensor_type;location;lat;lon;timestamp;P1;durP1;ratioP1;P2;durP2;ratioP2
36817;SDS011;22761;51.542;16.450;2024-01-16T00:02:13;5.80;;;1.60;;
36817;SDS011;22761;51.542;16.450;2024-01-16T00:04:41;5.80;;;2.40;;
36817;SDS011;22761;51.542;16.450;2024-01-16T00:07:10;8.00;;;2.30;;
36817;SDS011;22761;51.542;16.450;2024-01-16T00:09:38;6.20;;;2.70;;
36817;SDS011;22761;51.542;16.450;2024-01-16T00:12:06;10.80;;;2.70;;
36817;SDS011;22761;51.542;16.450;2024-01-16T00:14:35;7.00;;;2.30;;
36817;SDS011;22761;51.542;16.450;2024-01-16T00:17:05;8.80;;;2.60;;
36817;SDS011;22761;51.542;16.450;2024-01-16T00:19:33;6.90;;;2.30;;
36817;SDS011;22761;51.542;16.450;2024-01-16T00:22:02;6.20;;;2.00;;
36817;SDS011;22761;51.542;16.450;2024-01-16T00:27:00;7.60;;;2.20;;
36817;SDS011;22761;51.542;16.450;2024-01-16T00:29:28;6.50;;;2.20;;
36817;SDS011;22761;51.542;16.450;2024-01-16T00:31:58;6.30;;;2.30;;
36817;SDS011;22761;51.542;16.450;2024-01-16T00:34:26;7.20;;;1.90;;
36817;SDS011;22761;51.542;16.450;2024-01-16T00:36:55;4.10;;;1.90;;
36817;SDS011;22761;51.542;16.450;2024-01-16T00:39:23;6.00;;;2.60;;
36817;SDS011;22761;51.542;16.450;2024-01-16T00:41:51;7.70;;;2.50;;
36817;SDS011;22761;51.542;16.450;2024-01-16T00:44:19;4.80;;;2.10;;
36817;SDS011;22761;51.542;16.450;2024-01-16T00:46:47;3.90;;;1.50;;
36817;SDS011;22761;51.542;16.450;2024-01-16T00:49:16;6.30;;;2.10;;
36817;SDS011;22761;51.542;16.450;2024-01-16T00:51:48;8.60;;;2.80;;
36817;SDS011;22761;51.542;16.450;2024-01-16T00:54:16;5.30;;;2.10;;
36817;SDS011;22761;51.542;16.450;2024-01-16T00:56:44;6.80;;;1.90;;
36817;SDS011;22761;51.542;16.450;2024-01-16T00:59:12;6.40;;;1.60;;
36817;SDS011;22761;51.542;16.450;2024-01-16T01:01:41;5.70;;;2.30;;
36817;SDS011;22761;51.542;16.450;2024-01-16T01:04:09;8.70;;;2.20;;
36817;SDS011;22761;51.542;16.450;2024-01-16T01:06:37;6.30;;;2.90;;
36817;SDS011;22761;51.542;16.450;2024-01-16T01:09:06;7.30;;;2.50;;
36817;SDS011;22761;51.542;16.450;2024-01-16T01:11:34;6.90;;;2.20;;
36817;SDS011;22761;51.542;16.450;2024-01-16T01:14:03;6.10;;;2.80;;
36817;SDS011;22761;51.542;16.450;2024-01-16T01:16:31;6.00;;;2.70;;
36817;SDS011;22761;51.542;16.450;2024-01-16T01:18:59;8.70;;;2.80;;
36817;SDS011;22761;51.542;16.450;2024-01-16T01:21:28;4.40;;;2.50;;
36817;SDS011;22761;51.542;16.450;2024-01-16T01:23:57;8.80;;;3.10;;
36817;SDS011;22761;51.542;16.450;2024-01-16T01:26:25;7.90;;;3.50;;
36817;SDS011;22761;51.542;16.450;2024-01-16T01:28:53;9.60;;;2.40;;
36817;SDS011;22761;51.542;16.450;2024-01-16T01:31:22;4.00;;;1.50;;
36817;SDS011;22761;51.542;16.450;2024-01-16T01:33:50;4.20;;;1.70;;
36817;SDS011;22761;51.542;16.450;2024-01-16T01:36:19;9.60;;;3.90;;
36817;SDS011;22761;51.542;16.450;2024-01-16T01:38:47;5.40;;;2.60;;
36817;SDS011;22761;51.542;16.450;2024-01-16T01:41:16;4.90;;;1.70;;
36817;SDS011;22761;51.542;16.450;2024-01-16T01:43:44;6.30;;;1.70;;
36817;SDS011;22761;51.542;16.450;2024-01-16T01:46:13;3.60;;;1.50;;
36817;SDS011;22761;51.542;16.450;2024-01-16T01:48:47;3.40;;;1.40;;
36817;SDS011;22761;51.542;16.450;2024-01-16T01:51:18;5.80;;;1.40;;
36817;SDS011;22761;51.542;16.450;2024-01-16T01:53:48;6.80;;;1.80;;
36817;SDS011;22761;51.542;16.450;2024-01-16T01:56:18;5.80;;;1.70;;
36817;SDS011;22761;51.542;16.450;2024-01-16T01:58:48;6.80;;;2.10;;
36817;SDS011;22761;51.542;16.450;2024-01-16T02:01:17;5.60;;;3.00;;
36817;SDS011;22761;51.542;16.450;2024-01-16T02:03:47;8.60;;;3.40;;
36817;SDS011;22761;51.542;16.450;2024-01-16T02:06:15;16.00;;;5.60;;
36817;SDS011;22761;51.542;16.450;2024-01-16T02:08:44;10.70;;;4.20;;
36817;SDS011;22761;51.542;16.450;2024-01-16T02:11:13;11.00;;;4.30;;
36817;SDS011;22761;51.542;16.450;2024-01-16T02:13:41;9.40;;;4.10;;
36817;SDS011;22761;51.542;16.450;2024-01-16T02:16:23;9.00;;;3.40;;
36817;SDS011;22761;51.542;16.450;2024-01-16T02:18:54;10.00;;;4.00;;
36817;SDS011;22761;51.542;16.450;2024-01-16T02:21:25;8.80;;;4.10;;
36817;SDS011;22761;51.542;16.450;2024-01-16T02:23:56;9.70;;;3.90;;
36817;SDS011;22761;51.542;16.450;2024-01-16T02:26:24;9.00;;;3.80;;
36817;SDS011;22761;51.542;16.450;2024-01-16T02:28:52;13.10;;;4.20;;
36817;SDS011;22761;51.542;16.450;2024-01-16T02:31:21;9.00;;;2.90;;
36817;SDS011;22761;51.542;16.450;2024-01-16T02:33:49;9.80;;;2.10;;
36817;SDS011;22761;51.542;16.450;2024-01-16T02:36:17;7.80;;;2.20;;
36817;SDS011;22761;51.542;16.450;2024-01-16T02:38:45;9.20;;;2.90;;
36817;SDS011;22761;51.542;16.450;2024-01-16T02:41:14;3.80;;;1.70;;
36817;SDS011;22761;51.542;16.450;2024-01-16T02:46:13;5.10;;;1.50;;
36817;SDS011;22761;51.542;16.450;2024-01-16T02:48:42;5.30;;;1.30;;
36817;SDS011;22761;51.542;16.450;2024-01-16T02:51:11;6.50;;;1.50;;
36817;SDS011;22761;51.542;16.450;2024-01-16T02:53:39;6.90;;;1.80;;
36817;SDS011;22761;51.542;16.450;2024-01-16T02:56:08;4.40;;;2.00;;
36817;SDS011;22761;51.542;16.450;2024-01-16T02:58:37;6.50;;;1.60;;
36817;SDS011;22761;51.542;16.450;2024-01-16T03:01:05;4.40;;;1.80;;
36817;SDS011;22761;51.542;16.450;2024-01-16T03:03:33;5.10;;;1.80;;
36817;SDS011;22761;51.542;16.450;2024-01-16T03:06:01;4.80;;;2.10;;
36817;SDS011;22761;51.542;16.450;2024-01-16T03:08:30;5.20;;;2.10;;
36817;SDS011;22761;51.542;16.450;2024-01-16T03:10:58;5.30;;;2.50;;
36817;SDS011;22761;51.542;16.450;2024-01-16T03:13:26;4.40;;;2.40;;
36817;SDS011;22761;51.542;16.450;2024-01-16T03:15:55;7.60;;;2.50;;
36817;SDS011;22761;51.542;16.450;2024-01-16T03:18:23;6.50;;;2.50;;
36817;SDS011;22761;51.542;16.450;2024-01-16T03:20:51;7.40;;;2.50;;
36817;SDS011;22761;51.542;16.450;2024-01-16T03:23:20;7.30;;;2.40;;
36817;SDS011;22761;51.542;16.450;2024-01-16T03:25:48;7.30;;;2.50;;
36817;SDS011;22761;51.542;16.450;2024-01-16T03:28:16;4.90;;;2.20;;
36817;SDS011;22761;51.542;16.450;2024-01-16T03:30:44;6.70;;;2.50;;
36817;SDS011;22761;51.542;16.450;2024-01-16T03:33:13;10.80;;;5.00;;
36817;SDS011;22761;51.542;16.450;2024-01-16T03:35:41;8.00;;;2.50;;
36817;SDS011;22761;51.542;16.450;2024-01-16T03:38:09;5.90;;;2.10;;
36817;SDS011;22761;51.542;16.450;2024-01-16T03:40:37;6.50;;;2.30;;
36817;SDS011;22761;51.542;16.450;2024-01-16T03:43:06;7.20;;;2.20;;
36817;SDS011;22761;51.542;16.450;2024-01-16T03:45:34;7.00;;;2.50;;
36817;SDS011;22761;51.542;16.450;2024-01-16T03:48:02;7.30;;;2.90;;
36817;SDS011;22761;51.542;16.450;2024-01-16T03:50:31;4.50;;;2.20;;
36817;SDS011;22761;51.542;16.450;2024-01-16T03:53:00;6.90;;;2.30;;
36817;SDS011;22761;51.542;16.450;2024-01-16T03:55:28;7.50;;;2.40;;
36817;SDS011;22761;51.542;16.450;2024-01-16T03:57:56;9.30;;;2.10;;
36817;SDS011;22761;51.542;16.450;2024-01-16T04:00:24;7.30;;;2.00;;
36817;SDS011;22761;51.542;16.450;2024-01-16T04:02:52;4.30;;;1.50;;
36817;SDS011;22761;51.542;16.450;2024-01-16T04:05:21;8.10;;;2.20;;
36817;SDS011;22761;51.542;16.450;2024-01-16T04:07:49;4.00;;;1.50;;
36817;SDS011;22761;51.542;16.450;2024-01-16T04:10:17;3.80;;;1.50;;
36817;SDS011;22761;51.542;16.450;2024-01-16T04:12:45;4.40;;;1.60;;
36817;SDS011;22761;51.542;16.450;2024-01-16T04:15:14;4.90;;;1.40;;
36817;SDS011;22761;51.542;16.450;2024-01-16T04:17:42;6.70;;;1.70;;
36817;SDS011;22761;51.542;16.450;2024-01-16T04:20:11;5.70;;;1.80;;
36817;SDS011;22761;51.542;16.450;2024-01-16T04:22:39;5.90;;;2.40;;
36817;SDS011;22761;51.542;16.450;2024-01-16T04:25:07;5.60;;;1.70;;
36817;SDS011;22761;51.542;16.450;2024-01-16T04:27:35;6.40;;;2.20;;
36817;SDS011;22761;51.542;16.450;2024-01-16T04:30:03;7.30;;;1.90;;
36817;SDS011;22761;51.542;16.450;2024-01-16T04:32:32;9.70;;;3.80;;
36817;SDS011;22761;51.542;16.450;2024-01-16T04:35:01;8.60;;;4.40;;
36817;SDS011;22761;51.542;16.450;2024-01-16T04:37:29;12.90;;;4.60;;
36817;SDS011;22761;51.542;16.450;2024-01-16T04:39:57;13.90;;;6.10;;
36817;SDS011;22761;51.542;16.450;2024-01-16T04:42:27;12.40;;;5.40;;
36817;SDS011;22761;51.542;16.450;2024-01-16T04:44:55;6.10;;;2.20;;
36817;SDS011;22761;51.542;16.450;2024-01-16T04:47:23;10.20;;;3.40;;
36817;SDS011;22761;51.542;16.450;2024-01-16T04:49:52;18.50;;;7.40;;
36817;SDS011;22761;51.542;16.450;2024-01-16T04:52:20;13.50;;;4.40;;
36817;SDS011;22761;51.542;16.450;2024-01-16T04:54:48;13.80;;;4.50;;
36817;SDS011;22761;51.542;16.450;2024-01-16T04:57:16;13.40;;;3.90;;
36817;SDS011;22761;51.542;16.450;2024-01-16T04:59:44;12.90;;;5.00;;
36817;SDS011;22761;51.542;16.450;2024-01-16T05:02:13;11.90;;;4.80;;
36817;SDS011;22761;51.542;16.450;2024-01-16T05:04:42;12.10;;;4.40;;
36817;SDS011;22761;51.542;16.450;2024-01-16T05:07:10;6.40;;;2.20;;
36817;SDS011;22761;51.542;16.450;2024-01-16T05:09:38;4.70;;;1.90;;
36817;SDS011;22761;51.542;16.450;2024-01-16T05:12:06;4.40;;;2.10;;
36817;SDS011;22761;51.542;16.450;2024-01-16T05:14:35;2.90;;;1.50;;
36817;SDS011;22761;51.542;16.450;2024-01-16T05:17:03;5.70;;;2.00;;
36817;SDS011;22761;51.542;16.450;2024-01-16T05:19:31;4.70;;;1.30;;
36817;SDS011;22761;51.542;16.450;2024-01-16T05:22:00;4.30;;;1.40;;
36817;SDS011;22761;51.542;16.450;2024-01-16T05:24:28;2.90;;;1.20;;
36817;SDS011;22761;51.542;16.450;2024-01-16T05:26:57;1.60;;;0.70;;
36817;SDS011;22761;51.542;16.450;2024-01-16T05:29:25;1.60;;;0.70;;
36817;SDS011;22761;51.542;16.450;2024-01-16T05:31:53;1.90;;;0.60;;
36817;SDS011;22761;51.542;16.450;2024-01-16T05:34:21;1.80;;;0.50;;
36817;SDS011;22761;51.542;16.450;2024-01-16T05:36:49;3.30;;;1.00;;
36817;SDS011;22761;51.542;16.450;2024-01-16T05:39:17;5.60;;;1.50;;
36817;SDS011;22761;51.542;16.450;2024-01-16T05:41:46;5.90;;;1.50;;
36817;SDS011;22761;51.542;16.450;2024-01-16T05:44:14;5.30;;;1.70;;
36817;SDS011;22761;51.542;16.450;2024-01-16T05:46:43;6.80;;;2.10;;
36817;SDS011;22761;51.542;16.450;2024-01-16T05:49:12;10.50;;;3.30;;
36817;SDS011;22761;51.542;16.450;2024-01-16T05:51:40;7.30;;;2.90;;
36817;SDS011;22761;51.542;16.450;2024-01-16T05:54:09;8.10;;;3.00;;
36817;SDS011;22761;51.542;16.450;2024-01-16T05:56:37;12.10;;;4.80;;
36817;SDS011;22761;51.542;16.450;2024-01-16T05:59:05;4.60;;;1.20;;
36817;SDS011;22761;51.542;16.450;2024-01-16T06:01:35;3.40;;;1.10;;
36817;SDS011;22761;51.542;16.450;2024-01-16T06:04:03;2.70;;;1.10;;
36817;SDS011;22761;51.542;16.450;2024-01-16T06:06:31;1.60;;;0.70;;
36817;SDS011;22761;51.542;16.450;2024-01-16T06:09:01;4.60;;;2.60;;
36817;SDS011;22761;51.542;16.450;2024-01-16T06:11:33;3.40;;;1.60;;
36817;SDS011;22761;51.542;16.450;2024-01-16T06:14:02;4.00;;;1.50;;
36817;SDS011;22761;51.542;16.450;2024-01-16T06:16:31;5.50;;;2.40;;
36817;SDS011;22761;51.542;16.450;2024-01-16T06:18:59;3.90;;;1.20;;
36817;SDS011;22761;51.542;16.450;2024-01-16T06:21:27;1.10;;;0.80;;
36817;SDS011;22761;51.542;16.450;2024-01-16T06:23:55;1.20;;;0.70;;
36817;SDS011;22761;51.542;16.450;2024-01-16T06:26:24;5.40;;;1.20;;
36817;SDS011;22761;51.542;16.450;2024-01-16T06:28:52;9.10;;;2.30;;
36817;SDS011;22761;51.542;16.450;2024-01-16T06:31:20;6.20;;;1.30;;
36817;SDS011;22761;51.542;16.450;2024-01-16T06:33:49;3.30;;;1.10;;
36817;SDS011;22761;51.542;16.450;2024-01-16T06:36:17;2.70;;;0.90;;
36817;SDS011;22761;51.542;16.450;2024-01-16T06:38:45;6.10;;;2.10;;
36817;SDS011;22761;51.542;16.450;2024-01-16T06:41:13;25.10;;;8.20;;
36817;SDS011;22761;51.542;16.450;2024-01-16T06:43:42;67.90;;;25.10;;
36817;SDS011;22761;51.542;16.450;2024-01-16T06:46:10;28.70;;;11.00;;
36817;SDS011;22761;51.542;16.450;2024-01-16T06:48:38;6.90;;;3.10;;
36817;SDS011;22761;51.542;16.450;2024-01-16T06:51:07;5.90;;;2.20;;
36817;SDS011;22761;51.542;16.450;2024-01-16T06:53:36;2.40;;;1.10;;
36817;SDS011;22761;51.542;16.450;2024-01-16T06:56:08;4.70;;;1.10;;
36817;SDS011;22761;51.542;16.450;2024-01-16T06:58:37;7.60;;;2.80;;
36817;SDS011;22761;51.542;16.450;2024-01-16T07:01:05;12.80;;;4.30;;
36817;SDS011;22761;51.542;16.450;2024-01-16T07:03:33;13.60;;;4.40;;
36817;SDS011;22761;51.542;16.450;2024-01-16T07:06:01;6.30;;;2.10;;
36817;SDS011;22761;51.542;16.450;2024-01-16T07:08:31;3.70;;;1.70;;
36817;SDS011;22761;51.542;16.450;2024-01-16T07:10:59;3.80;;;2.10;;
36817;SDS011;22761;51.542;16.450;2024-01-16T07:13:27;8.10;;;2.80;;
36817;SDS011;22761;51.542;16.450;2024-01-16T07:15:55;9.90;;;3.40;;
36817;SDS011;22761;51.542;16.450;2024-01-16T07:18:23;4.40;;;1.90;;
36817;SDS011;22761;51.542;16.450;2024-01-16T07:20:51;6.70;;;2.40;;
36817;SDS011;22761;51.542;16.450;2024-01-16T07:23:20;8.00;;;3.20;;
36817;SDS011;22761;51.542;16.450;2024-01-16T07:25:48;5.60;;;3.00;;
36817;SDS011;22761;51.542;16.450;2024-01-16T07:28:16;9.00;;;5.60;;
36817;SDS011;22761;51.542;16.450;2024-01-16T07:30:45;8.90;;;4.80;;
36817;SDS011;22761;51.542;16.450;2024-01-16T07:33:13;11.60;;;4.30;;
36817;SDS011;22761;51.542;16.450;2024-01-16T07:35:41;7.90;;;4.00;;
36817;SDS011;22761;51.542;16.450;2024-01-16T07:38:11;7.20;;;3.70;;
36817;SDS011;22761;51.542;16.450;2024-01-16T07:40:40;9.20;;;3.60;;
36817;SDS011;22761;51.542;16.450;2024-01-16T07:43:08;6.70;;;3.00;;
36817;SDS011;22761;51.542;16.450;2024-01-16T07:45:36;6.90;;;3.20;;
36817;SDS011;22761;51.542;16.450;2024-01-16T07:48:04;4.90;;;2.70;;
36817;SDS011;22761;51.542;16.450;2024-01-16T07:50:33;6.40;;;3.70;;
36817;SDS011;22761;51.542;16.450;2024-01-16T07:53:01;13.90;;;7.00;;
36817;SDS011;22761;51.542;16.450;2024-01-16T07:55:30;11.10;;;5.30;;
36817;SDS011;22761;51.542;16.450;2024-01-16T07:57:58;9.90;;;4.70;;
36817;SDS011;22761;51.542;16.450;2024-01-16T08:00:26;9.80;;;5.60;;
36817;SDS011;22761;51.542;16.450;2024-01-16T08:02:55;12.20;;;5.20;;
36817;SDS011;22761;51.542;16.450;2024-01-16T08:05:23;13.90;;;5.30;;
36817;SDS011;22761;51.542;16.450;2024-01-16T08:07:56;10.20;;;4.90;;
36817;SDS011;22761;51.542;16.450;2024-01-16T08:10:25;11.30;;;4.90;;
36817;SDS011;22761;51.542;16.450;2024-01-16T08:12:54;11.50;;;4.80;;
36817;SDS011;22761;51.542;16.450;2024-01-16T08:15:22;7.10;;;3.40;;
36817;SDS011;22761;51.542;16.450;2024-01-16T08:17:50;5.80;;;2.60;;
36817;SDS011;22761;51.542;16.450;2024-01-16T08:20:18;36.40;;;17.90;;
36817;SDS011;22761;51.542;16.450;2024-01-16T08:22:46;45.90;;;23.30;;
36817;SDS011;22761;51.542;16.450;2024-01-16T08:25:15;19.40;;;10.70;;
36817;SDS011;22761;51.542;16.450;2024-01-16T08:27:43;9.80;;;5.40;;
36817;SDS011;22761;51.542;16.450;2024-01-16T08:30:11;8.00;;;5.00;;
36817;SDS011;22761;51.542;16.450;2024-01-16T08:32:40;7.60;;;5.20;;
36817;SDS011;22761;51.542;16.450;2024-01-16T08:35:08;8.30;;;4.90;;
36817;SDS011;22761;51.542;16.450;2024-01-16T08:37:37;10.40;;;4.70;;
36817;SDS011;22761;51.542;16.450;2024-01-16T08:40:05;8.30;;;4.30;;
36817;SDS011;22761;51.542;16.450;2024-01-16T08:42:34;7.70;;;3.50;;
36817;SDS011;22761;51.542;16.450;2024-01-16T08:45:03;7.40;;;3.80;;
36817;SDS011;22761;51.542;16.450;2024-01-16T08:47:33;16.70;;;7.60;;
36817;SDS011;22761;51.542;16.450;2024-01-16T08:50:01;28.10;;;13.50;;
36817;SDS011;22761;51.542;16.450;2024-01-16T08:52:30;25.40;;;11.40;;
36817;SDS011;22761;51.542;16.450;2024-01-16T08:54:58;9.40;;;5.00;;
36817;SDS011;22761;51.542;16.450;2024-01-16T08:57:27;8.30;;;4.10;;
36817;SDS011;22761;51.542;16.450;2024-01-16T09:02:26;6.10;;;3.50;;
36817;SDS011;22761;51.542;16.450;2024-01-16T09:04:58;5.40;;;2.90;;
36817;SDS011;22761;51.542;16.450;2024-01-16T09:07:27;8.90;;;4.10;;
36817;SDS011;22761;51.542;16.450;2024-01-16T09:09:55;7.60;;;3.60;;
36817;SDS011;22761;51.542;16.450;2024-01-16T09:12:23;8.50;;;4.20;;
36817;SDS011;22761;51.542;16.450;2024-01-16T09:14:52;7.30;;;2.80;;
36817;SDS011;22761;51.542;16.450;2024-01-16T09:17:20;5.10;;;2.90;;
36817;SDS011;22761;51.542;16.450;2024-01-16T09:19:49;8.70;;;3.50;;
36817;SDS011;22761;51.542;16.450;2024-01-16T09:22:17;6.90;;;3.30;;
36817;SDS011;22761;51.542;16.450;2024-01-16T09:24:45;5.80;;;3.70;;
36817;SDS011;22761;51.542;16.450;2024-01-16T09:27:14;6.90;;;3.40;;
36817;SDS011;22761;51.542;16.450;2024-01-16T09:29:44;8.40;;;3.20;;
36817;SDS011;22761;51.542;16.450;2024-01-16T09:32:12;11.80;;;4.60;;
36817;SDS011;22761;51.542;16.450;2024-01-16T09:34:41;10.90;;;6.10;;
36817;SDS011;22761;51.542;16.450;2024-01-16T09:37:09;13.80;;;6.30;;
36817;SDS011;22761;51.542;16.450;2024-01-16T09:39:37;9.90;;;4.60;;
36817;SDS011;22761;51.542;16.450;2024-01-16T09:42:05;8.00;;;4.00;;
36817;SDS011;22761;51.542;16.450;2024-01-16T09:44:34;11.20;;;4.80;;
36817;SDS011;22761;51.542;16.450;2024-01-16T09:47:03;10.80;;;5.10;;
36817;SDS011;22761;51.542;16.450;2024-01-16T09:49:31;9.30;;;4.70;;
36817;SDS011;22761;51.542;16.450;2024-01-16T09:51:59;11.00;;;4.90;;
36817;SDS011;22761;51.542;16.450;2024-01-16T09:54:29;12.70;;;4.80;;
36817;SDS011;22761;51.542;16.450;2024-01-16T09:56:58;11.80;;;5.80;;
36817;SDS011;22761;51.542;16.450;2024-01-16T09:59:27;10.60;;;5.20;;
36817;SDS011;22761;51.542;16.450;2024-01-16T10:01:57;9.30;;;4.70;;
36817;SDS011;22761;51.542;16.450;2024-01-16T10:04:26;8.80;;;4.80;;
36817;SDS011;22761;51.542;16.450;2024-01-16T10:06:55;16.80;;;7.60;;
36817;SDS011;22761;51.542;16.450;2024-01-16T10:09:25;18.20;;;9.00;;
36817;SDS011;22761;51.542;16.450;2024-01-16T10:11:54;9.60;;;5.30;;
36817;SDS011;22761;51.542;16.450;2024-01-16T10:14:22;9.80;;;4.60;;
36817;SDS011;22761;51.542;16.450;2024-01-16T10:17:01;9.10;;;5.70;;
36817;SDS011;22761;51.542;16.450;2024-01-16T10:19:34;8.80;;;5.80;;
36817;SDS011;22761;51.542;16.450;2024-01-16T10:22:19;9.90;;;5.90;;
36817;SDS011;22761;51.542;16.450;2024-01-16T10:25:09;7.30;;;3.80;;
36817;SDS011;22761;51.542;16.450;2024-01-16T10:27:39;7.90;;;3.50;;
36817;SDS011;22761;51.542;16.450;2024-01-16T10:30:08;6.50;;;3.20;;
36817;SDS011;22761;51.542;16.450;2024-01-16T10:32:41;5.40;;;3.00;;
36817;SDS011;22761;51.542;16.450;2024-01-16T10:35:11;7.20;;;3.50;;
36817;SDS011;22761;51.542;16.450;2024-01-16T10:37:41;5.90;;;3.20;;
36817;SDS011;22761;51.542;16.450;2024-01-16T10:40:21;7.20;;;3.50;;
36817;SDS011;22761;51.542;16.450;2024-01-16T10:43:04;6.90;;;3.60;;
36817;SDS011;22761;51.542;16.450;2024-01-16T10:45:32;8.90;;;3.90;;
36817;SDS011;22761;51.542;16.450;2024-01-16T10:48:01;8.40;;;4.40;;
36817;SDS011;22761;51.542;16.450;2024-01-16T10:53:04;9.20;;;4.00;;
36817;SDS011;22761;51.542;16.450;2024-01-16T10:55:43;7.80;;;3.70;;
36817;SDS011;22761;51.542;16.450;2024-01-16T10:58:21;10.50;;;5.10;;
36817;SDS011;22761;51.542;16.450;2024-01-16T11:00:53;10.80;;;5.30;;
36817;SDS011;22761;51.542;16.450;2024-01-16T11:06:14;13.50;;;5.60;;
36817;SDS011;22761;51.542;16.450;2024-01-16T11:08:47;15.80;;;6.00;;
36817;SDS011;22761;51.542;16.450;2024-01-16T11:11:17;12.90;;;5.20;;
36817;SDS011;22761;51.542;16.450;2024-01-16T11:13:46;21.80;;;9.00;;
36817;SDS011;22761;51.542;16.450;2024-01-16T11:16:15;14.70;;;6.50;;
36817;SDS011;22761;51.542;16.450;2024-01-16T11:18:44;10.50;;;5.20;;
36817;SDS011;22761;51.542;16.450;2024-01-16T11:21:13;10.30;;;5.30;;
36817;SDS011;22761;51.542;16.450;2024-01-16T11:23:45;8.20;;;4.90;;
36817;SDS011;22761;51.542;16.450;2024-01-16T11:28:57;8.10;;;3.90;;
36817;SDS011;22761;51.542;16.450;2024-01-16T11:31:32;11.70;;;4.40;;
36817;SDS011;22761;51.542;16.450;2024-01-16T11:34:02;10.40;;;4.50;;
36817;SDS011;22761;51.542;16.450;2024-01-16T11:36:50;8.70;;;4.40;;
36817;SDS011;22761;51.542;16.450;2024-01-16T11:47:18;7.40;;;4.50;;
36817;SDS011;22761;51.542;16.450;2024-01-16T11:49:52;9.90;;;4.50;;
36817;SDS011;22761;51.542;16.450;2024-01-16T11:52:40;7.30;;;3.70;;
36817;SDS011;22761;51.542;16.450;2024-01-16T11:55:26;7.50;;;4.00;;
36817;SDS011;22761;51.542;16.450;2024-01-16T12:00:34;6.10;;;3.30;;
36817;SDS011;22761;51.542;16.450;2024-01-16T12:03:03;6.90;;;3.60;;
36817;SDS011;22761;51.542;16.450;2024-01-16T12:05:32;7.70;;;3.90;;
36817;SDS011;22761;51.542;16.450;2024-01-16T12:08:00;6.10;;;3.20;;
36817;SDS011;22761;51.542;16.450;2024-01-16T12:10:31;5.90;;;3.40;;
36817;SDS011;22761;51.542;16.450;2024-01-16T12:13:00;9.20;;;3.60;;
36817;SDS011;22761;51.542;16.450;2024-01-16T12:15:32;9.50;;;3.40;;
36817;SDS011;22761;51.542;16.450;2024-01-16T12:18:01;6.50;;;3.70;;
36817;SDS011;22761;51.542;16.450;2024-01-16T12:20:32;7.60;;;3.30;;
36817;SDS011;22761;51.542;16.450;2024-01-16T12:23:05;7.40;;;3.70;;
36817;SDS011;22761;51.542;16.450;2024-01-16T12:25:34;8.20;;;3.60;;
36817;SDS011;22761;51.542;16.450;2024-01-16T12:28:23;9.40;;;3.80;;
36817;SDS011;22761;51.542;16.450;2024-01-16T12:31:00;9.10;;;4.00;;
36817;SDS011;22761;51.542;16.450;2024-01-16T12:33:29;9.10;;;4.50;;
36817;SDS011;22761;51.542;16.450;2024-01-16T12:36:02;7.40;;;4.00;;
36817;SDS011;22761;51.542;16.450;2024-01-16T12:38:33;6.30;;;3.50;;
36817;SDS011;22761;51.542;16.450;2024-01-16T12:41:05;9.50;;;4.10;;
36817;SDS011;22761;51.542;16.450;2024-01-16T12:43:36;8.20;;;3.80;;
36817;SDS011;22761;51.542;16.450;2024-01-16T12:46:05;8.90;;;4.30;;
36817;SDS011;22761;51.542;16.450;2024-01-16T12:48:34;7.50;;;3.40;;
36817;SDS011;22761;51.542;16.450;2024-01-16T12:51:04;10.50;;;3.30;;
36817;SDS011;22761;51.542;16.450;2024-01-16T12:53:35;9.60;;;4.40;;
36817;SDS011;22761;51.542;16.450;2024-01-16T12:56:08;9.40;;;4.50;;
36817;SDS011;22761;51.542;16.450;2024-01-16T12:58:37;8.70;;;5.00;;
36817;SDS011;22761;51.542;16.450;2024-01-16T13:04:06;14.00;;;7.40;;
36817;SDS011;22761;51.542;16.450;2024-01-16T13:06:35;14.20;;;7.40;;
36817;SDS011;22761;51.542;16.450;2024-01-16T13:09:06;11.70;;;5.80;;
36817;SDS011;22761;51.542;16.450;2024-01-16T13:14:14;5.30;;;3.30;;
36817;SDS011;22761;51.542;16.450;2024-01-16T13:16:42;9.60;;;4.20;;
36817;SDS011;22761;51.542;16.450;2024-01-16T13:19:11;11.60;;;4.80;;
36817;SDS011;22761;51.542;16.450;2024-01-16T13:21:39;9.60;;;5.30;;
36817;SDS011;22761;51.542;16.450;2024-01-16T13:24:07;11.90;;;5.70;;
36817;SDS011;22761;51.542;16.450;2024-01-16T13:26:36;10.70;;;5.20;;
36817;SDS011;22761;51.542;16.450;2024-01-16T13:29:05;8.10;;;4.50;;
36817;SDS011;22761;51.542;16.450;2024-01-16T13:31:37;9.20;;;3.50;;
36817;SDS011;22761;51.542;16.450;2024-01-16T13:34:05;8.30;;;3.40;;
36817;SDS011;22761;51.542;16.450;2024-01-16T13:36:33;7.70;;;3.40;;
36817;SDS011;22761;51.542;16.450;2024-01-16T13:39:21;7.70;;;3.70;;
36817;SDS011;22761;51.542;16.450;2024-01-16T13:41:49;9.20;;;4.40;;
36817;SDS011;22761;51.542;16.450;2024-01-16T13:44:18;8.70;;;4.10;;
36817;SDS011;22761;51.542;16.450;2024-01-16T13:46:46;6.00;;;3.90;;
36817;SDS011;22761;51.542;16.450;2024-01-16T13:49:32;9.80;;;4.70;;
36817;SDS011;22761;51.542;16.450;2024-01-16T13:52:02;9.60;;;5.70;;
36817;SDS011;22761;51.542;16.450;2024-01-16T13:54:31;37.80;;;19.10;;
36817;SDS011;22761;51.542;16.450;2024-01-16T13:56:59;83.10;;;40.80;;
36817;SDS011;22761;51.542;16.450;2024-01-16T13:59:35;111.10;;;51.90;;
36817;SDS011;22761;51.542;16.450;2024-01-16T14:02:04;329.00;;;119.10;;
36817;SDS011;22761;51.542;16.450;2024-01-16T14:04:33;83.80;;;30.70;;
36817;SDS011;22761;51.542;16.450;2024-01-16T14:07:02;25.40;;;9.80;;
36817;SDS011;22761;51.542;16.450;2024-01-16T14:09:41;80.70;;;32.80;;
36817;SDS011;22761;51.542;16.450;2024-01-16T14:12:11;210.10;;;71.60;;
36817;SDS011;22761;51.542;16.450;2024-01-16T14:14:40;344.30;;;116.90;;
36817;SDS011;22761;51.542;16.450;2024-01-16T14:17:10;415.40;;;141.80;;
36817;SDS011;22761;51.542;16.450;2024-01-16T14:19:38;61.80;;;23.80;;
36817;SDS011;22761;51.542;16.450;2024-01-16T14:22:07;36.50;;;15.40;;
36817;SDS011;22761;51.542;16.450;2024-01-16T14:24:35;114.60;;;30.80;;
36817;SDS011;22761;51.542;16.450;2024-01-16T14:27:06;57.00;;;21.90;;
36817;SDS011;22761;51.542;16.450;2024-01-16T14:29:36;130.80;;;44.60;;
36817;SDS011;22761;51.542;16.450;2024-01-16T14:34:34;112.40;;;36.90;;
36817;SDS011;22761;51.542;16.450;2024-01-16T14:37:02;62.50;;;16.10;;
36817;SDS011;22761;51.542;16.450;2024-01-16T14:39:31;48.00;;;14.80;;
36817;SDS011;22761;51.542;16.450;2024-01-16T14:41:59;48.90;;;16.20;;
36817;SDS011;22761;51.542;16.450;2024-01-16T14:44:28;28.50;;;16.30;;
36817;SDS011;22761;51.542;16.450;2024-01-16T14:46:57;50.60;;;26.00;;
36817;SDS011;22761;51.542;16.450;2024-01-16T14:49:25;54.30;;;21.90;;
36817;SDS011;22761;51.542;16.450;2024-01-16T14:51:59;54.30;;;19.60;;
36817;SDS011;22761;51.542;16.450;2024-01-16T14:54:29;71.20;;;33.60;;
36817;SDS011;22761;51.542;16.450;2024-01-16T14:56:57;75.20;;;37.30;;
36817;SDS011;22761;51.542;16.450;2024-01-16T14:59:26;41.00;;;25.60;;
36817;SDS011;22761;51.542;16.450;2024-01-16T15:01:54;19.50;;;11.20;;
36817;SDS011;22761;51.542;16.450;2024-01-16T15:04:22;39.10;;;20.40;;
36817;SDS011;22761;51.542;16.450;2024-01-16T15:06:51;18.60;;;9.70;;
36817;SDS011;22761;51.542;16.450;2024-01-16T15:09:21;12.90;;;6.90;;
36817;SDS011;22761;51.542;16.450;2024-01-16T15:11:49;64.20;;;30.20;;
36817;SDS011;22761;51.542;16.450;2024-01-16T15:14:18;16.60;;;9.00;;
36817;SDS011;22761;51.542;16.450;2024-01-16T15:16:46;12.00;;;7.20;;